createdAt,value
2022-11-28T00:00:30.543Z,95.43
2022-11-28T00:02:57.888Z,95.75
2022-11-28T00:05:25.059Z,95.88
2022-11-28T00:07:52.250Z,95.68
2022-11-28T00:10:20.884Z,95.73
2022-11-28T00:12:48.065Z,95.66
2022-11-28T00:15:15.146Z,95.77
2022-11-28T00:17:42.388Z,95.64
2022-11-28T00:20:09.791Z,96.73
2022-11-28T00:22:36.895Z,97.06
2022-11-28T00:25:04.048Z,97.39
2022-11-28T00:27:31.219Z,97.19
2022-11-28T00:29:58.478Z,97.30
2022-11-28T00:32:25.465Z,96.91
2022-11-28T00:34:52.542Z,96.69
2022-11-28T00:37:21.855Z,96.72
2022-11-28T00:39:52.005Z,96.74
2022-11-28T00:42:22.514Z,97.26
2022-11-28T00:44:50.017Z,97.25
2022-11-28T00:47:17.104Z,97.23
2022-11-28T00:53:02.484Z,98.58
2022-11-28T00:55:29.498Z,98.42
2022-11-28T00:57:56.622Z,97.90
2022-11-28T01:00:24.816Z,98.19
2022-11-28T01:02:52.697Z,97.89
2022-11-28T01:05:19.835Z,97.72
2022-11-28T01:07:46.775Z,97.71
2022-11-28T01:13:32.921Z,97.69
2022-11-28T01:16:00.247Z,97.53
2022-11-28T01:18:27.287Z,97.26
2022-11-28T01:20:54.367Z,97.23
2022-11-28T01:23:21.411Z,97.55
2022-11-28T01:25:58.449Z,97.40
2022-11-28T01:28:25.376Z,97.56
2022-11-28T01:30:52.220Z,97.57
2022-11-28T01:33:19.044Z,97.28
2022-11-28T01:35:54.815Z,96.74
2022-11-28T01:41:40.829Z,96.14
2022-11-28T01:44:07.956Z,96.45
2022-11-28T01:46:46.899Z,96.37
2022-11-28T01:49:18.064Z,95.71
2022-11-28T01:51:48.265Z,95.61
2022-11-28T01:54:17.059Z,95.20
2022-11-28T01:56:47.709Z,95.44
2022-11-28T01:59:18.014Z,95.96
2022-11-28T02:01:45.753Z,96.24
2022-11-28T02:04:14.279Z,96.26
2022-11-28T02:06:42.183Z,96.13
2022-11-28T02:09:12.578Z,95.58
2022-11-28T02:11:48.646Z,94.75
2022-11-28T02:14:26.308Z,95.36
2022-11-28T02:17:03.547Z,95.12
2022-11-28T02:19:39.779Z,94.97
2022-11-28T02:22:09.859Z,94.96
2022-11-28T02:24:49.687Z,94.82
2022-11-28T02:27:23.575Z,94.54
2022-11-28T02:30:03.980Z,94.55
2022-11-28T02:32:37.375Z,95.26
2022-11-28T02:35:16.364Z,95.26
2022-11-28T02:37:43.714Z,94.29
2022-11-28T02:40:14.280Z,93.78
2022-11-28T02:42:48.429Z,93.89
2022-11-28T02:45:18.657Z,94.30
2022-11-28T02:47:49.063Z,93.97
2022-11-28T02:53:34.655Z,94.35
2022-11-28T02:56:05.023Z,94.44
2022-11-28T02:58:31.920Z,93.68
2022-11-28T03:01:01.110Z,94.07
2022-11-28T03:03:37.408Z,94.27
2022-11-28T03:13:29.559Z,95.17
2022-11-28T03:16:06.178Z,94.72
2022-11-28T03:18:38.404Z,94.86
2022-11-28T03:21:17.154Z,94.42
2022-11-28T03:23:51.265Z,94.75
2022-11-28T03:36:18.881Z,93.74
2022-11-28T03:38:57.699Z,93.49
2022-11-28T03:41:31.714Z,93.80
2022-11-28T03:43:59.244Z,93.86
2022-11-28T03:46:32.059Z,93.29
2022-11-28T03:49:00.924Z,93.03
2022-11-28T03:51:33.305Z,93.94
2022-11-28T03:54:02.855Z,94.09
2022-11-28T03:56:41.635Z,93.67
2022-11-28T03:59:11.839Z,93.45
2022-11-28T04:01:41.875Z,93.18
2022-11-28T04:04:15.285Z,93.24
2022-11-28T04:06:51.906Z,93.56
2022-11-28T04:09:20.457Z,93.63
2022-11-28T04:11:52.264Z,93.66
2022-11-28T04:14:24.390Z,93.74
2022-11-28T04:16:54.125Z,93.90
2022-11-28T04:19:33.744Z,94.16
2022-11-28T04:22:03.520Z,95.08
2022-11-28T04:24:34.000Z,94.58
2022-11-28T04:27:05.872Z,94.06
2022-11-28T04:29:36.440Z,94.85
2022-11-28T04:32:04.430Z,95.18
2022-11-28T04:34:32.875Z,95.00
2022-11-28T04:37:05.452Z,94.97
2022-11-28T04:39:36.696Z,94.94
2022-11-28T04:42:12.730Z,94.37
2022-11-28T04:44:44.771Z,94.17
2022-11-28T04:47:12.149Z,94.40
2022-11-28T04:50:27.480Z,94.24
2022-11-28T04:52:57.925Z,93.54
2022-11-28T04:55:25.001Z,93.41
2022-11-28T04:57:57.044Z,93.36
2022-11-28T05:00:24.573Z,93.10
2022-11-28T05:02:53.814Z,93.59
2022-11-28T05:05:23.036Z,93.38
2022-11-28T05:07:50.011Z,93.22
2022-11-28T05:10:17.137Z,93.44
2022-11-28T05:12:44.304Z,93.27
2022-11-28T05:15:15.453Z,93.04
2022-11-28T05:17:42.747Z,93.49
2022-11-28T05:20:12.604Z,95.54
2022-11-28T05:22:39.724Z,95.21
2022-11-28T05:25:09.450Z,94.73
2022-11-28T05:28:24.465Z,94.52
2022-11-28T05:30:58.691Z,94.49
2022-11-28T05:33:26.102Z,94.36
2022-11-28T05:35:53.485Z,94.95
2022-11-28T05:38:25.264Z,95.38
2022-11-28T05:40:52.449Z,95.15
2022-11-28T05:43:20.449Z,95.24
2022-11-28T05:45:47.954Z,95.02
2022-11-28T05:48:14.969Z,94.35
2022-11-28T05:50:42.444Z,94.30
2022-11-28T05:53:09.514Z,93.75
2022-11-28T05:55:38.515Z,93.40
2022-11-28T05:58:05.665Z,93.14
2022-11-28T06:00:34.284Z,93.25
2022-11-28T06:03:03.506Z,93.90
2022-11-28T06:05:46.969Z,94.05
2022-11-28T06:08:14.331Z,94.18
2022-11-28T06:10:43.239Z,94.07
2022-11-28T06:13:10.189Z,93.90
2022-11-28T06:15:38.531Z,94.38
2022-11-28T06:21:24.448Z,94.55
2022-11-28T06:23:51.985Z,94.12
2022-11-28T06:26:20.290Z,94.35
2022-11-28T06:28:47.685Z,93.83
2022-11-28T06:31:18.662Z,95.16
2022-11-28T06:33:46.160Z,94.91
2022-11-28T06:36:13.869Z,94.40
2022-11-28T06:38:40.969Z,94.04
2022-11-28T06:41:09.516Z,94.39
2022-11-28T06:43:39.500Z,94.27
2022-11-28T06:52:43.015Z,94.91
2022-11-28T06:55:10.327Z,94.54
2022-11-28T06:57:38.715Z,94.13
2022-11-28T07:00:07.362Z,94.84
2022-11-28T07:02:34.508Z,94.63
2022-11-28T07:05:01.689Z,95.02
2022-11-28T07:07:28.721Z,94.74
2022-11-28T07:09:55.804Z,94.62
2022-11-28T07:12:22.786Z,94.75
2022-11-28T07:14:49.671Z,94.49
2022-11-28T07:17:16.889Z,94.38
2022-11-28T07:19:48.160Z,94.16
2022-11-28T07:22:19.769Z,93.69
2022-11-28T07:24:49.201Z,93.91
2022-11-28T07:27:16.939Z,93.84
2022-11-28T07:29:50.036Z,93.86
2022-11-28T07:32:17.904Z,94.30
2022-11-28T07:34:50.037Z,94.28
2022-11-28T07:37:17.701Z,93.67
2022-11-28T07:39:44.957Z,94.25
2022-11-28T07:42:12.419Z,93.77
2022-11-28T07:44:42.631Z,94.28
2022-11-28T07:47:09.739Z,94.50
2022-11-28T07:49:36.760Z,94.53
2022-11-28T07:52:04.451Z,94.55
2022-11-28T07:54:31.549Z,94.12
2022-11-28T07:57:12.611Z,93.81
2022-11-28T07:59:41.967Z,93.95
2022-11-28T08:02:10.249Z,94.17
2022-11-28T08:04:39.133Z,94.06
2022-11-28T08:07:13.653Z,93.91
2022-11-28T08:09:41.219Z,94.07
2022-11-28T08:12:08.401Z,94.15
2022-11-28T08:14:35.835Z,93.96
2022-11-28T08:20:21.470Z,93.98
2022-11-28T08:22:50.024Z,94.41
2022-11-28T08:25:18.625Z,94.39
2022-11-28T08:27:45.740Z,94.73
2022-11-28T08:30:13.785Z,95.11
2022-11-28T08:32:44.111Z,95.14
2022-11-28T08:35:11.244Z,94.72
2022-11-28T08:37:38.646Z,94.37
2022-11-28T08:40:06.949Z,94.21
2022-11-28T08:42:34.447Z,94.34
2022-11-28T08:45:01.707Z,94.33
2022-11-28T08:47:29.091Z,94.06
2022-11-28T08:49:56.256Z,93.97
2022-11-28T08:52:23.905Z,94.05
2022-11-28T08:54:51.365Z,93.99
2022-11-28T08:57:18.710Z,93.75
2022-11-28T08:59:45.984Z,94.06
2022-11-28T09:02:13.556Z,94.27
2022-11-28T09:04:40.985Z,94.48
2022-11-28T09:07:10.900Z,93.90
2022-11-28T09:09:38.149Z,93.61
2022-11-28T09:12:11.230Z,93.92
2022-11-28T09:14:41.014Z,93.97
2022-11-28T09:17:11.363Z,93.78
2022-11-28T09:19:42.004Z,93.78
2022-11-28T09:22:09.450Z,93.69
2022-11-28T09:24:39.531Z,92.94
2022-11-28T09:27:06.942Z,92.80
2022-11-28T09:29:34.607Z,93.03
2022-11-28T09:32:02.354Z,93.02
2022-11-28T09:34:29.374Z,92.87
2022-11-28T09:36:59.693Z,92.92
2022-11-28T09:39:39.527Z,92.29
2022-11-28T09:45:35.031Z,92.09
2022-11-28T09:48:06.372Z,91.89
2022-11-28T09:50:38.091Z,92.08
2022-11-28T09:53:06.266Z,91.90
2022-11-28T09:55:40.371Z,91.39
2022-11-28T09:58:17.010Z,91.34
2022-11-28T10:00:55.775Z,91.19
2022-11-28T10:03:33.051Z,91.27
2022-11-28T10:06:09.965Z,91.53
2022-11-28T10:08:38.104Z,91.84
2022-11-28T10:11:06.830Z,91.77
2022-11-28T10:14:06.568Z,91.16
2022-11-28T10:16:40.975Z,91.20
2022-11-28T10:19:20.641Z,91.23
2022-11-28T10:22:01.476Z,90.54
2022-11-28T10:24:36.746Z,90.35
2022-11-28T10:27:04.708Z,89.59
2022-11-28T10:29:39.044Z,88.78
2022-11-28T10:32:07.125Z,88.30
2022-11-28T10:34:42.516Z,88.53
2022-11-28T10:37:14.191Z,88.70
2022-11-28T10:39:44.150Z,88.47
2022-11-28T10:42:20.986Z,88.23
2022-11-28T10:44:58.134Z,87.59
2022-11-28T10:47:25.426Z,87.40
2022-11-28T10:50:04.850Z,87.47
2022-11-28T10:52:32.259Z,87.97
2022-11-28T10:55:02.800Z,87.01
2022-11-28T10:57:41.235Z,87.13
2022-11-28T11:00:13.506Z,87.16
2022-11-28T11:02:46.349Z,88.14
2022-11-28T11:08:35.534Z,87.51
2022-11-28T11:11:11.744Z,86.60
2022-11-28T11:13:47.835Z,86.36
2022-11-28T11:16:14.971Z,85.80
2022-11-28T11:18:43.249Z,85.72
2022-11-28T11:21:10.706Z,86.53
2022-11-28T11:23:38.656Z,86.24
2022-11-28T11:26:10.555Z,87.05
2022-11-28T11:28:39.240Z,86.86
2022-11-28T11:31:15.144Z,86.72
2022-11-28T11:34:26.286Z,87.02
2022-11-28T11:37:13.254Z,86.61
2022-11-28T11:39:47.025Z,86.60
2022-11-28T11:42:21.166Z,86.37
2022-11-28T11:44:48.476Z,85.95
2022-11-28T11:47:19.138Z,85.57
2022-11-28T11:49:48.365Z,84.79
2022-11-28T11:52:22.957Z,84.45
2022-11-28T11:54:57.167Z,84.49
2022-11-28T11:57:33.164Z,84.48
2022-11-28T12:00:10.761Z,84.40
2022-11-28T12:02:42.156Z,83.07
2022-11-28T12:05:13.126Z,82.92
2022-11-28T12:07:50.758Z,82.22
2022-11-28T12:10:20.922Z,83.34
2022-11-28T12:12:47.871Z,84.23
2022-11-28T12:15:17.895Z,85.16
2022-11-28T12:17:50.180Z,85.40
2022-11-28T12:20:51.319Z,83.65
2022-11-28T12:23:26.092Z,83.59
2022-11-28T12:25:53.483Z,83.18
2022-11-28T12:28:32.807Z,83.19
2022-11-28T12:31:01.327Z,83.46
2022-11-28T13:03:21.480Z,84.23
2022-11-28T13:05:58.657Z,84.41
2022-11-28T13:08:35.393Z,84.50
2022-11-28T13:11:15.858Z,85.28
2022-11-28T13:14:26.539Z,85.10
2022-11-28T13:16:56.036Z,85.44
2022-11-28T13:19:23.467Z,85.83
2022-11-28T13:22:01.718Z,85.53
2022-11-28T13:24:34.506Z,85.32
2022-11-28T13:27:07.516Z,85.04
2022-11-28T13:29:40.880Z,84.89
2022-11-28T13:32:08.040Z,84.12
2022-11-28T13:34:35.637Z,84.19
2022-11-28T13:40:10.428Z,84.74
2022-11-28T13:43:07.509Z,84.32
2022-11-28T13:45:36.260Z,85.00
2022-11-28T13:48:13.083Z,85.40
2022-11-28T13:51:30.251Z,85.92
2022-11-28T13:54:07.523Z,85.93
2022-11-28T13:56:34.339Z,86.32
2022-11-28T13:59:02.599Z,86.33
2022-11-28T14:01:43.177Z,86.29
2022-11-28T14:07:30.745Z,87.00
2022-11-28T14:10:08.269Z,87.74
2022-11-28T14:12:50.702Z,88.01
2022-11-28T14:15:27.937Z,88.16
2022-11-28T14:18:02.257Z,88.09
2022-11-28T14:20:29.361Z,88.26
2022-11-28T14:23:04.663Z,88.56
2022-11-28T14:25:33.112Z,88.60
2022-11-28T14:28:01.982Z,88.85
2022-11-28T14:30:29.145Z,89.30
2022-11-28T14:33:01.216Z,89.44
2022-11-28T14:35:37.876Z,89.46
2022-11-28T14:38:24.845Z,89.39
2022-11-28T14:41:01.249Z,89.16
2022-11-28T14:43:32.537Z,89.72
2022-11-28T14:46:09.421Z,89.75
2022-11-28T14:48:37.368Z,89.48
2022-11-28T14:51:05.027Z,89.55
2022-11-28T14:53:38.257Z,90.08
2022-11-28T14:56:15.854Z,90.41
2022-11-28T14:58:51.212Z,90.03
2022-11-28T15:01:26.577Z,89.71
2022-11-28T15:04:00.009Z,89.76
2022-11-28T15:09:53.578Z,89.53
2022-11-28T15:12:34.059Z,88.96
2022-11-28T15:15:02.069Z,88.84
2022-11-28T15:17:33.127Z,87.85
2022-11-28T15:20:05.859Z,88.38
2022-11-28T15:22:34.356Z,88.96
2022-11-28T15:25:01.762Z,89.12
2022-11-28T15:27:29.103Z,89.45
2022-11-28T15:29:58.678Z,89.94
2022-11-28T15:32:28.687Z,90.10
2022-11-28T15:35:01.055Z,90.18
2022-11-28T15:37:30.557Z,90.39
2022-11-28T15:39:58.321Z,90.29
2022-11-28T15:42:34.793Z,90.36
2022-11-28T15:45:02.016Z,90.09
2022-11-28T15:47:29.251Z,90.72
2022-11-28T15:50:02.289Z,91.05
2022-11-28T15:52:35.987Z,91.41
2022-11-28T15:55:04.757Z,91.39
2022-11-28T15:57:33.141Z,90.87
2022-11-28T16:00:27.490Z,90.37
2022-11-28T16:02:57.231Z,90.94
2022-11-28T16:05:29.758Z,90.93
2022-11-28T16:07:59.747Z,90.67
2022-11-28T16:10:32.921Z,90.78
2022-11-28T16:13:05.162Z,90.80
2022-11-28T16:15:32.703Z,90.79
2022-11-28T16:17:59.822Z,91.06
2022-11-28T16:20:29.997Z,91.29
2022-11-28T16:23:02.942Z,91.77
2022-11-28T16:25:31.018Z,92.01
2022-11-28T16:27:58.697Z,92.10
2022-11-28T16:30:40.036Z,91.86
2022-11-28T16:33:21.707Z,91.79
2022-11-28T16:35:49.841Z,91.55
2022-11-28T16:38:25.197Z,91.57
2022-11-28T16:41:01.403Z,91.76
2022-11-28T16:43:29.741Z,91.83
2022-11-28T16:45:58.429Z,91.90
2022-11-28T16:48:29.675Z,92.04
2022-11-28T16:51:06.717Z,92.03
2022-11-28T16:53:44.406Z,91.95
2022-11-28T16:56:22.041Z,92.06
2022-11-28T16:58:49.137Z,92.09
2022-11-28T17:01:16.078Z,92.32
2022-11-28T17:03:45.617Z,92.47
2022-11-28T17:06:16.072Z,92.77
2022-11-28T17:08:43.237Z,92.55
2022-11-28T17:11:10.699Z,91.77
2022-11-28T17:13:37.952Z,91.66
2022-11-28T17:16:05.349Z,92.25
2022-11-28T17:18:32.434Z,92.15
2022-11-28T17:26:50.097Z,88.92
2022-11-28T17:29:20.153Z,88.11
2022-11-28T17:31:47.672Z,88.36
2022-11-28T17:34:23.049Z,88.13
2022-11-28T17:36:51.465Z,87.91
2022-11-28T17:39:22.177Z,87.46
2022-11-28T17:41:49.677Z,87.60
2022-11-28T17:44:18.614Z,87.72
2022-11-28T17:46:48.521Z,87.86
2022-11-28T17:49:16.058Z,87.91
2022-11-28T17:51:43.516Z,88.31
2022-11-28T17:54:13.181Z,88.53
2022-11-28T17:56:44.881Z,88.45
2022-11-28T17:59:12.446Z,88.37
2022-11-28T18:01:40.721Z,88.55
2022-11-28T18:04:08.135Z,88.64
2022-11-28T18:06:35.161Z,88.66
2022-11-28T18:09:08.626Z,87.99
2022-11-28T18:15:00.162Z,84.02
2022-11-28T18:17:30.611Z,83.74
2022-11-28T18:19:58.446Z,83.35
2022-11-28T18:22:25.481Z,82.56
2022-11-28T18:25:00.221Z,82.56
2022-11-28T18:30:46.516Z,83.42
2022-11-28T18:33:16.889Z,83.40
2022-11-28T18:35:44.303Z,83.21
2022-11-28T18:38:13.982Z,83.60
2022-11-28T18:40:40.981Z,83.46
2022-11-28T18:46:26.957Z,83.80
2022-11-28T18:48:57.595Z,82.54
2022-11-28T18:51:26.808Z,82.43
2022-11-28T18:53:54.796Z,82.71
2022-11-28T18:56:22.413Z,82.71
2022-11-28T18:58:52.583Z,83.03
2022-11-28T19:01:25.610Z,82.77
2022-11-28T19:03:54.082Z,82.93
2022-11-28T19:06:21.880Z,82.95
2022-11-28T19:08:49.676Z,83.07
2022-11-28T19:11:17.501Z,83.64
2022-11-28T19:13:54.237Z,83.34
2022-11-28T19:16:24.060Z,82.60
2022-11-28T19:18:51.555Z,82.60
2022-11-28T19:21:21.852Z,83.08
2022-11-28T19:23:49.480Z,84.27
2022-11-28T19:30:22.870Z,84.35
2022-11-28T19:32:49.927Z,84.65
2022-11-28T19:35:17.119Z,85.21
2022-11-28T19:37:46.956Z,85.50
2022-11-28T19:40:14.564Z,85.60
2022-11-28T19:42:41.451Z,85.99
2022-11-28T19:45:09.216Z,86.64
2022-11-28T19:47:36.547Z,86.87
2022-11-28T19:50:03.820Z,87.51
2022-11-28T19:52:30.842Z,88.43
2022-11-28T19:54:57.821Z,88.89
2022-11-28T19:57:26.715Z,89.50
2022-11-28T19:59:54.035Z,89.58
2022-11-28T20:02:21.963Z,89.27
2022-11-28T20:04:49.155Z,89.47
2022-11-28T20:07:16.433Z,89.84
2022-11-28T20:18:53.863Z,89.68
2022-11-28T20:21:22.000Z,90.27
2022-11-28T20:23:50.143Z,91.16
2022-11-28T20:26:35.953Z,90.68
2022-11-28T20:29:03.179Z,90.46
2022-11-28T20:34:53.077Z,90.42
2022-11-28T20:37:22.602Z,90.71
2022-11-28T20:39:54.535Z,91.16
2022-11-28T20:42:36.787Z,90.90
2022-11-28T20:45:15.662Z,90.54
2022-11-28T20:50:22.427Z,90.67
2022-11-28T20:52:49.464Z,90.27
2022-11-28T20:55:18.011Z,90.13
2022-11-28T20:57:53.516Z,89.97
2022-11-28T21:00:39.894Z,89.92
2022-11-28T21:03:11.752Z,90.17
2022-11-28T21:05:40.514Z,90.13
2022-11-28T21:08:34.941Z,90.43
2022-11-28T21:11:25.544Z,90.36
2022-11-28T21:14:08.935Z,90.78
2022-11-28T21:16:36.707Z,91.18
2022-11-28T21:19:09.971Z,91.46
2022-11-28T21:21:38.240Z,92.05
2022-11-28T21:24:17.687Z,92.20
2022-11-28T21:26:53.849Z,92.59
2022-11-28T21:29:24.036Z,92.47
2022-11-28T21:31:53.328Z,92.48
2022-11-28T21:34:24.312Z,92.77
2022-11-28T21:36:51.611Z,93.14
2022-11-28T21:39:25.001Z,93.26
2022-11-28T21:41:55.163Z,92.85
2022-11-28T21:44:24.321Z,93.33
2022-11-28T21:46:51.488Z,93.21
2022-11-28T21:49:23.156Z,93.43
2022-11-28T21:51:52.122Z,93.72
2022-11-28T21:57:02.028Z,93.38
2022-11-28T21:59:32.246Z,93.10
2022-11-28T22:01:59.801Z,93.19
2022-11-28T22:04:35.865Z,92.80
2022-11-28T22:07:05.267Z,92.45
2022-11-28T22:09:43.075Z,92.60
2022-11-28T22:15:41.018Z,92.23
2022-11-28T22:18:10.445Z,91.93
2022-11-28T22:20:44.994Z,91.88
2022-11-28T22:23:27.267Z,92.02
2022-11-28T22:26:00.002Z,91.87
2022-11-28T22:28:40.203Z,91.69
2022-11-28T22:31:08.069Z,91.82
2022-11-28T22:33:45.485Z,91.60
2022-11-28T22:36:14.379Z,91.63
2022-11-28T22:38:42.348Z,91.66
2022-11-28T22:41:23.319Z,92.28
2022-11-28T22:44:05.204Z,92.71
2022-11-28T22:46:37.681Z,92.02
2022-11-28T22:49:11.257Z,91.30
2022-11-28T22:51:45.126Z,91.52
2022-11-28T22:54:29.891Z,91.85
2022-11-28T22:57:00.224Z,91.96
2022-11-28T22:59:27.339Z,92.22
2022-11-28T23:01:56.528Z,92.62
2022-11-28T23:07:41.955Z,91.84
2022-11-28T23:10:12.141Z,91.66
2022-11-28T23:12:44.840Z,91.85
2022-11-28T23:15:16.281Z,92.14
2022-11-28T23:17:43.273Z,91.91
2022-11-28T23:20:13.586Z,92.14
2022-11-28T23:22:41.367Z,92.38
2022-11-28T23:25:13.731Z,92.95
2022-11-28T23:27:47.021Z,93.26
2022-11-28T23:30:18.650Z,93.54
2022-11-28T23:32:45.671Z,93.30
2022-11-28T23:35:14.581Z,93.52
2022-11-28T23:37:46.530Z,94.13
2022-11-28T23:40:15.254Z,94.92
2022-11-28T23:42:44.010Z,95.74
2022-11-28T23:45:20.928Z,95.87
2022-11-28T23:47:47.851Z,96.46
2022-11-28T23:50:23.186Z,96.92
2022-11-28T23:52:53.038Z,97.21
2022-11-28T23:55:26.056Z,96.81
2022-11-28T23:57:56.321Z,96.85
